createdAt,value
2022-12-04T00:01:16.583Z,46.50
2022-12-04T00:03:44.444Z,46.53
2022-12-04T00:06:14.349Z,44.75
2022-12-04T00:08:42.577Z,41.00
2022-12-04T00:11:11.914Z,42.78
2022-12-04T00:13:40.063Z,43.25
2022-12-04T00:16:12.062Z,44.88
2022-12-04T00:18:39.812Z,44.60
2022-12-04T00:21:08.819Z,45.78
2022-12-04T00:23:37.981Z,48.47
2022-12-04T00:26:10.820Z,47.30
2022-12-04T00:28:38.833Z,48.10
2022-12-04T00:31:07.902Z,45.30
2022-12-04T00:33:37.549Z,45.38
2022-12-04T00:36:07.478Z,40.78
2022-12-04T00:38:35.587Z,42.65
2022-12-04T00:41:03.297Z,44.00
2022-12-04T00:43:32.156Z,44.67
2022-12-04T00:45:59.890Z,46.08
2022-12-04T00:48:28.032Z,42.42
2022-12-04T00:50:59.014Z,47.28
2022-12-04T00:53:26.700Z,41.38
2022-12-04T00:55:54.362Z,42.58
2022-12-04T00:58:22.044Z,49.75
2022-12-04T01:00:49.768Z,45.42
2022-12-04T01:03:17.591Z,40.63
2022-12-04T01:05:46.735Z,45.70
2022-12-04T01:08:15.804Z,43.83
2022-12-04T01:10:43.533Z,42.95
2022-12-04T01:13:11.421Z,41.13
2022-12-04T01:15:40.371Z,47.65
2022-12-04T01:18:08.517Z,44.28
2022-12-04T01:20:36.205Z,43.13
2022-12-04T01:23:04.363Z,42.92
2022-12-04T01:25:33.715Z,42.67
2022-12-04T01:28:01.436Z,44.92
2022-12-04T01:30:29.577Z,41.13
2022-12-04T01:32:57.247Z,45.78
2022-12-04T01:35:24.917Z,47.47
2022-12-04T01:37:52.584Z,39.40
2022-12-04T01:40:21.131Z,42.97
2022-12-04T01:42:50.134Z,42.97
2022-12-04T01:45:39.632Z,45.45
2022-12-04T01:48:13.885Z,44.35
2022-12-04T01:50:42.570Z,44.28
2022-12-04T01:53:10.375Z,46.08
2022-12-04T01:55:38.344Z,41.53
2022-12-04T01:58:08.474Z,42.38
2022-12-04T02:00:36.277Z,42.60
2022-12-04T02:03:04.099Z,44.58
2022-12-04T02:05:31.766Z,41.08
2022-12-04T02:08:03.160Z,41.65
2022-12-04T02:10:41.189Z,43.67
2022-12-04T02:13:17.925Z,40.65
2022-12-04T02:15:52.754Z,41.97
2022-12-04T02:18:30.439Z,44.10
2022-12-04T02:21:06.921Z,40.88
2022-12-04T02:23:56.946Z,39.15
2022-12-04T02:26:40.979Z,42.28
2022-12-04T02:29:17.877Z,43.10
2022-12-04T02:31:52.501Z,39.42
2022-12-04T02:34:27.431Z,42.85
2022-12-04T02:37:00.925Z,42.00
2022-12-04T02:39:36.426Z,41.50
2022-12-04T02:42:09.116Z,42.67
2022-12-04T02:44:42.585Z,40.88
2022-12-04T02:47:13.637Z,40.85
2022-12-04T02:49:46.120Z,41.63
2022-12-04T02:52:19.398Z,40.28
2022-12-04T02:54:51.544Z,41.80
2022-12-04T02:57:23.234Z,41.97
2022-12-04T02:59:55.006Z,37.55
2022-12-04T03:02:29.443Z,39.00
2022-12-04T03:05:01.947Z,41.50
2022-12-04T03:07:36.327Z,43.25
2022-12-04T03:10:10.956Z,41.95
2022-12-04T03:12:43.630Z,42.08
2022-12-04T03:15:19.161Z,43.95
2022-12-04T03:17:53.545Z,41.33
2022-12-04T03:20:23.021Z,48.78
2022-12-04T03:22:55.570Z,44.35
2022-12-04T03:25:36.247Z,39.78
2022-12-04T03:28:08.405Z,39.20
2022-12-04T03:30:45.303Z,42.22
2022-12-04T03:33:16.274Z,42.83
2022-12-04T03:35:48.655Z,42.47
2022-12-04T03:38:21.526Z,43.33
2022-12-04T03:40:55.569Z,44.53
2022-12-04T03:43:29.105Z,40.38
2022-12-04T03:46:04.387Z,41.03
2022-12-04T03:48:39.869Z,47.10
2022-12-04T03:51:19.370Z,42.70
2022-12-04T03:53:52.502Z,43.22
2022-12-04T03:56:23.978Z,42.15
2022-12-04T03:58:56.815Z,42.50
2022-12-04T04:01:34.047Z,42.00
2022-12-04T04:04:05.166Z,40.75
2022-12-04T04:06:39.990Z,42.35
2022-12-04T04:09:15.485Z,41.85
2022-12-04T04:11:48.493Z,45.60
2022-12-04T04:14:39.917Z,44.72
2022-12-04T04:17:37.943Z,43.28
2022-12-04T04:20:27.681Z,47.90
2022-12-04T04:23:17.138Z,47.83
2022-12-04T04:25:46.642Z,45.95
2022-12-04T04:28:34.967Z,45.58
2022-12-04T04:31:11.175Z,45.75
2022-12-04T04:33:49.365Z,45.88
2022-12-04T04:36:24.442Z,43.55
2022-12-04T04:39:01.839Z,43.95
2022-12-04T04:41:37.408Z,42.47
2022-12-04T04:44:16.476Z,42.33
2022-12-04T04:46:49.020Z,44.75
2022-12-04T04:49:19.522Z,49.83
2022-12-04T04:51:48.246Z,46.63
2022-12-04T04:54:17.842Z,45.30
2022-12-04T04:56:47.331Z,45.33
2022-12-04T04:59:16.027Z,46.70
2022-12-04T05:01:46.885Z,44.28
2022-12-04T05:04:14.838Z,48.80
2022-12-04T05:06:43.866Z,44.78
2022-12-04T05:09:11.590Z,44.05
2022-12-04T05:11:39.304Z,43.38
2022-12-04T05:14:07.025Z,48.90
2022-12-04T05:16:34.759Z,40.40
2022-12-04T05:19:20.310Z,43.33
2022-12-04T05:21:49.332Z,44.58
2022-12-04T05:24:16.968Z,43.95
2022-12-04T05:26:44.775Z,42.30
2022-12-04T05:29:12.465Z,43.10
2022-12-04T05:31:40.194Z,43.45
2022-12-04T05:34:07.917Z,43.15
2022-12-04T05:36:35.554Z,46.42
2022-12-04T05:39:04.751Z,45.78
2022-12-04T05:41:32.437Z,46.65
2022-12-04T05:44:00.120Z,44.78
2022-12-04T05:46:27.823Z,43.03
2022-12-04T05:48:55.551Z,43.58
2022-12-04T05:51:23.191Z,46.65
2022-12-04T05:53:53.002Z,43.55
2022-12-04T05:56:22.496Z,43.35
2022-12-04T05:58:50.157Z,46.80
2022-12-04T06:01:20.344Z,47.60
2022-12-04T06:03:48.002Z,47.40
2022-12-04T06:06:21.433Z,45.53
2022-12-04T06:08:50.647Z,44.13
2022-12-04T06:11:20.974Z,50.08
2022-12-04T06:13:50.212Z,48.03
2022-12-04T06:16:20.324Z,44.13
2022-12-04T06:18:51.567Z,47.00
2022-12-04T06:21:20.623Z,42.35
2022-12-04T06:23:48.728Z,42.67
2022-12-04T06:26:16.649Z,41.85
2022-12-04T06:28:44.532Z,42.40
2022-12-04T06:31:15.901Z,48.35
2022-12-04T06:33:43.705Z,42.97
2022-12-04T06:36:13.377Z,44.45
2022-12-04T06:38:41.565Z,44.47
2022-12-04T06:41:11.049Z,43.15
2022-12-04T06:43:38.896Z,47.47
2022-12-04T06:46:08.552Z,45.22
2022-12-04T06:48:38.261Z,46.55
2022-12-04T06:51:08.270Z,43.58
2022-12-04T06:53:36.477Z,46.15
2022-12-04T06:56:18.077Z,39.97
2022-12-04T06:58:46.005Z,44.30
2022-12-04T07:01:16.138Z,42.78
2022-12-04T07:03:51.040Z,46.78
2022-12-04T07:06:22.008Z,42.08
2022-12-04T07:08:52.791Z,44.55
2022-12-04T07:11:22.055Z,46.83
2022-12-04T07:13:50.098Z,47.00
2022-12-04T07:16:20.740Z,47.22
2022-12-04T07:18:53.285Z,43.88
2022-12-04T07:21:23.041Z,44.10
2022-12-04T07:23:51.720Z,43.08
2022-12-04T07:26:19.945Z,43.50
2022-12-04T07:28:48.101Z,41.70
2022-12-04T07:31:17.928Z,42.20
2022-12-04T07:33:46.665Z,41.72
2022-12-04T07:36:19.350Z,44.13
2022-12-04T07:38:47.961Z,44.55
2022-12-04T07:41:16.682Z,40.97
2022-12-04T07:43:44.665Z,44.05
2022-12-04T07:46:14.613Z,40.63
2022-12-04T07:48:42.413Z,41.38
2022-12-04T07:51:12.252Z,43.58
2022-12-04T07:53:42.021Z,39.88
2022-12-04T07:56:11.959Z,40.80
2022-12-04T07:58:40.153Z,38.60
2022-12-04T08:01:10.025Z,37.30
2022-12-04T08:03:42.114Z,37.20
2022-12-04T08:06:13.817Z,42.88
2022-12-04T08:08:42.887Z,40.47
2022-12-04T08:11:12.633Z,41.97
2022-12-04T08:13:40.387Z,39.05
2022-12-04T08:16:10.941Z,35.83
2022-12-04T08:18:39.964Z,37.88
2022-12-04T08:21:10.192Z,33.83
2022-12-04T08:23:41.375Z,35.13
2022-12-04T08:26:11.095Z,34.25
2022-12-04T08:28:38.846Z,41.47
2022-12-04T08:31:08.655Z,36.97
2022-12-04T08:33:36.651Z,35.83
2022-12-04T08:36:07.552Z,36.45
2022-12-04T08:38:35.671Z,39.30
2022-12-04T08:41:04.327Z,36.47
2022-12-04T08:43:33.857Z,34.42
2022-12-04T08:46:03.897Z,34.63
2022-12-04T08:48:32.372Z,37.13
2022-12-04T08:51:00.448Z,32.85
2022-12-04T08:53:28.451Z,36.08
2022-12-04T08:55:56.093Z,33.65
2022-12-04T08:58:24.464Z,33.00
2022-12-04T09:00:53.500Z,32.60
2022-12-04T09:03:26.210Z,30.92
2022-12-04T09:06:00.182Z,33.15
2022-12-04T09:08:28.041Z,34.53
2022-12-04T09:10:55.785Z,34.20
2022-12-04T09:13:23.481Z,31.38
2022-12-04T09:15:51.133Z,33.55
2022-12-04T09:18:20.169Z,33.25
2022-12-04T09:20:56.528Z,30.38
2022-12-04T09:23:24.200Z,31.02
2022-12-04T09:25:52.234Z,29.02
2022-12-04T09:28:20.446Z,30.90
2022-12-04T09:30:57.556Z,29.33
2022-12-04T09:33:26.876Z,26.98
2022-12-04T09:35:54.605Z,33.10
2022-12-04T09:38:22.339Z,29.80
2022-12-04T09:40:59.091Z,27.83
2022-12-04T09:43:33.314Z,27.17
2022-12-04T09:46:08.820Z,25.70
2022-12-04T09:48:42.959Z,25.80
2022-12-04T09:51:18.717Z,25.95
2022-12-04T09:53:49.834Z,29.38
2022-12-04T09:56:20.763Z,28.50
2022-12-04T09:58:51.904Z,28.60
2022-12-04T10:01:24.607Z,26.35
2022-12-04T10:03:56.926Z,26.80
2022-12-04T10:06:33.262Z,26.10
2022-12-04T10:09:04.915Z,27.85
2022-12-04T10:11:45.586Z,27.25
2022-12-04T10:14:38.825Z,29.80
2022-12-04T10:17:32.242Z,26.70
2022-12-04T10:20:12.771Z,26.80
2022-12-04T10:22:54.655Z,25.83
2022-12-04T10:25:23.432Z,25.67
2022-12-04T10:27:56.944Z,27.20
2022-12-04T10:30:27.026Z,26.00
2022-12-04T10:32:59.145Z,25.85
2022-12-04T10:35:30.997Z,24.10
2022-12-04T10:38:04.133Z,22.60
2022-12-04T10:40:36.775Z,27.45
2022-12-04T10:43:13.141Z,29.10
2022-12-04T10:45:40.917Z,25.02
2022-12-04T10:48:13.309Z,26.42
2022-12-04T10:50:42.390Z,25.45
2022-12-04T10:53:14.091Z,29.23
2022-12-04T10:55:42.242Z,26.17
2022-12-04T10:58:16.817Z,26.67
2022-12-04T11:00:46.795Z,26.35
2022-12-04T11:03:25.752Z,26.77
2022-12-04T11:05:59.362Z,24.45
2022-12-04T11:08:32.049Z,24.70
2022-12-04T11:11:02.365Z,26.95
2022-12-04T11:13:30.320Z,23.65
2022-12-04T11:15:59.297Z,26.58
2022-12-04T11:18:28.641Z,26.02
2022-12-04T11:21:00.512Z,24.92
2022-12-04T11:23:33.142Z,26.48
2022-12-04T11:26:05.828Z,27.67
2022-12-04T11:28:43.321Z,24.20
2022-12-04T11:33:45.883Z,24.45
2022-12-04T11:36:23.148Z,25.13
2022-12-04T11:38:52.739Z,25.23
2022-12-04T11:41:28.655Z,26.05
2022-12-04T11:44:00.223Z,24.17
2022-12-04T11:46:30.490Z,25.65
2022-12-04T11:48:59.143Z,25.30
2022-12-04T11:51:44.780Z,24.85
2022-12-04T11:54:23.155Z,26.50
2022-12-04T11:57:03.005Z,23.70
2022-12-04T11:59:44.032Z,20.95
2022-12-04T12:02:32.133Z,24.17
2022-12-04T12:05:32.817Z,19.85
2022-12-04T12:08:13.862Z,24.42
2022-12-04T12:10:49.286Z,23.70
2022-12-04T12:13:27.272Z,25.50
2022-12-04T12:16:05.868Z,24.80
2022-12-04T12:18:53.557Z,23.17
2022-12-04T12:21:26.281Z,25.13
2022-12-04T12:24:10.609Z,22.67
2022-12-04T12:26:47.057Z,24.25
2022-12-04T12:29:31.386Z,24.35
2022-12-04T12:32:11.222Z,22.83
2022-12-04T12:34:41.179Z,22.75
2022-12-04T12:37:23.109Z,23.73
2022-12-04T12:40:01.015Z,22.33
2022-12-04T12:42:34.694Z,25.40
2022-12-04T12:45:07.439Z,26.98
2022-12-04T12:47:42.068Z,26.60
2022-12-04T12:50:17.479Z,24.90
2022-12-04T12:52:51.687Z,24.60
2022-12-04T12:55:25.074Z,27.83
2022-12-04T12:58:01.043Z,25.25
2022-12-04T13:00:33.068Z,23.70
2022-12-04T13:03:04.921Z,24.17
2022-12-04T13:05:38.566Z,23.00
2022-12-04T13:08:18.822Z,23.77
2022-12-04T13:10:54.740Z,25.85
2022-12-04T13:13:27.541Z,26.70
2022-12-04T13:15:58.566Z,23.33
2022-12-04T13:18:29.814Z,22.10
2022-12-04T13:21:00.636Z,22.50
2022-12-04T13:23:45.836Z,22.08
2022-12-04T13:26:28.221Z,25.63
2022-12-04T13:29:04.104Z,23.25
2022-12-04T13:31:39.189Z,23.20
2022-12-04T13:34:24.797Z,25.13
2022-12-04T13:37:03.805Z,25.17
2022-12-04T13:40:15.828Z,25.13
2022-12-04T13:42:45.308Z,22.98
2022-12-04T13:45:25.851Z,23.52
2022-12-04T13:47:58.508Z,24.00
2022-12-04T13:50:31.877Z,20.60
2022-12-04T13:53:00.748Z,20.40
2022-12-04T13:55:32.109Z,20.85
2022-12-04T13:58:03.527Z,20.98
2022-12-04T14:00:33.900Z,21.80
2022-12-04T14:03:05.667Z,21.83
2022-12-04T14:05:41.113Z,21.70
2022-12-04T14:08:24.947Z,21.50
2022-12-04T14:11:01.973Z,21.13
2022-12-04T14:13:45.406Z,21.15
2022-12-04T14:16:23.424Z,20.83
2022-12-04T14:18:54.107Z,20.77
2022-12-04T14:21:22.177Z,22.30
2022-12-04T14:23:50.740Z,22.58
2022-12-04T14:26:48.797Z,24.90
2022-12-04T14:29:35.562Z,23.70
2022-12-04T14:32:10.761Z,21.50
2022-12-04T14:34:39.021Z,21.55
2022-12-04T14:37:07.774Z,18.75
2022-12-04T14:39:40.894Z,22.27
2022-12-04T14:42:15.578Z,19.80
2022-12-04T14:44:47.192Z,20.70
2022-12-04T14:47:27.003Z,22.25
2022-12-04T14:50:10.313Z,20.70
2022-12-04T14:52:43.958Z,22.23
2022-12-04T14:55:23.640Z,20.27
2022-12-04T14:57:56.585Z,20.38
2022-12-04T15:00:26.938Z,21.98
2022-12-04T15:02:57.642Z,20.45
2022-12-04T15:05:28.252Z,23.52
2022-12-04T15:08:00.219Z,22.58
2022-12-04T15:10:47.404Z,21.98
2022-12-04T15:13:26.717Z,19.52
2022-12-04T15:15:55.992Z,21.15
2022-12-04T15:18:23.964Z,20.73
2022-12-04T15:20:57.773Z,19.50
2022-12-04T15:23:30.145Z,20.67
2022-12-04T15:25:59.970Z,22.52
2022-12-04T15:28:32.922Z,18.05
2022-12-04T15:31:06.168Z,19.23
2022-12-04T15:33:38.940Z,20.35
2022-12-04T15:36:10.575Z,20.35
2022-12-04T15:38:38.526Z,23.05
2022-12-04T15:41:06.403Z,20.55
2022-12-04T15:43:41.019Z,23.90
2022-12-04T15:46:16.095Z,20.05
2022-12-04T15:48:47.665Z,21.23
2022-12-04T15:51:17.228Z,22.42
2022-12-04T15:53:47.063Z,22.67
2022-12-04T15:56:19.785Z,21.92
2022-12-04T15:58:55.850Z,20.58
2022-12-04T16:01:25.470Z,20.50
2022-12-04T16:03:55.564Z,21.25
2022-12-04T16:06:25.756Z,22.10
2022-12-04T16:08:55.410Z,22.20
2022-12-04T16:11:32.441Z,24.17
2022-12-04T16:16:34.162Z,22.60
2022-12-04T16:19:03.250Z,19.85
2022-12-04T16:21:32.757Z,21.95
2022-12-04T16:24:03.296Z,20.20
2022-12-04T16:26:30.993Z,23.75
2022-12-04T16:28:59.273Z,25.73
2022-12-04T16:31:27.788Z,21.17
2022-12-04T16:33:56.941Z,23.23
2022-12-04T16:36:24.631Z,20.67
2022-12-04T16:38:52.277Z,21.10
2022-12-04T16:41:21.207Z,23.52
2022-12-04T16:43:54.241Z,19.20
2022-12-04T16:46:24.491Z,20.30
2022-12-04T16:48:52.228Z,20.20
2022-12-04T16:51:24.126Z,19.35
2022-12-04T16:53:53.111Z,20.33
2022-12-04T16:56:24.356Z,16.33
2022-12-04T16:58:52.086Z,18.60
2022-12-04T17:01:23.519Z,18.67
2022-12-04T17:03:51.404Z,19.73
2022-12-04T17:06:19.838Z,19.08
2022-12-04T17:08:48.933Z,20.58
2022-12-04T17:11:18.266Z,18.30
2022-12-04T17:13:46.536Z,18.30
2022-12-04T17:16:18.471Z,17.98
2022-12-04T17:18:47.534Z,16.55
2022-12-04T17:21:15.587Z,19.50
2022-12-04T17:23:43.935Z,21.13
2022-12-04T17:26:16.063Z,20.83
2022-12-04T17:28:44.656Z,18.20
2022-12-04T17:31:15.513Z,18.25
2022-12-04T17:33:44.066Z,18.83
2022-12-04T17:36:13.348Z,22.27
2022-12-04T17:38:41.776Z,21.27
2022-12-04T17:41:13.664Z,19.20
2022-12-04T17:43:43.694Z,18.38
2022-12-04T17:46:12.469Z,23.88
2022-12-04T17:48:40.592Z,16.73
2022-12-04T17:51:10.384Z,18.30
2022-12-04T17:53:39.304Z,20.02
2022-12-04T17:56:09.165Z,20.10
2022-12-04T17:58:37.766Z,20.30
2022-12-04T18:01:09.535Z,19.15
2022-12-04T18:03:38.603Z,19.95
2022-12-04T18:06:13.822Z,20.42
2022-12-04T18:08:45.297Z,19.90
2022-12-04T18:11:18.719Z,17.58
2022-12-04T18:13:46.462Z,22.83
2022-12-04T18:16:15.598Z,21.27
2022-12-04T18:18:46.621Z,22.10
2022-12-04T18:21:15.457Z,19.42
2022-12-04T18:23:45.179Z,22.25
2022-12-04T18:26:14.247Z,19.35
2022-12-04T18:28:42.346Z,21.85
2022-12-04T18:31:11.076Z,19.45
2022-12-04T18:33:42.200Z,21.25
2022-12-04T18:36:14.420Z,20.58
2022-12-04T18:38:42.152Z,25.58
2022-12-04T18:41:12.423Z,22.65
2022-12-04T18:43:41.873Z,20.88
2022-12-04T18:46:13.342Z,21.52
2022-12-04T18:48:43.384Z,23.48
2022-12-04T18:51:20.364Z,22.05
2022-12-04T18:56:16.258Z,23.67
2022-12-04T18:58:44.621Z,24.65
2022-12-04T19:01:14.831Z,20.63
2022-12-04T19:03:43.962Z,21.35
2022-12-04T19:06:12.278Z,22.88
2022-12-04T19:08:43.873Z,22.42
2022-12-04T19:11:13.446Z,24.48
2022-12-04T19:13:41.786Z,25.48
2022-12-04T19:16:13.055Z,23.77
2022-12-04T19:18:42.107Z,26.52
2022-12-04T19:21:11.197Z,25.98
2022-12-04T19:23:38.865Z,22.80
2022-12-04T19:26:06.895Z,22.30
2022-12-04T19:28:34.646Z,27.58
2022-12-04T19:31:02.380Z,26.30
2022-12-04T19:33:30.376Z,24.95
2022-12-04T19:36:00.043Z,22.60
2022-12-04T19:38:29.978Z,24.45
2022-12-04T19:41:06.326Z,25.70
2022-12-04T19:43:34.102Z,27.58
2022-12-04T19:46:02.508Z,28.30
2022-12-04T19:48:30.249Z,26.85
2022-12-04T19:51:03.463Z,28.77
2022-12-04T19:53:37.667Z,26.60
2022-12-04T19:56:10.880Z,26.10
2022-12-04T19:58:39.014Z,26.05
2022-12-04T20:01:08.643Z,26.40
2022-12-04T20:03:37.143Z,26.63
2022-12-04T20:06:05.694Z,28.67
2022-12-04T20:08:35.258Z,32.10
2022-12-04T20:11:04.214Z,28.17
2022-12-04T20:13:32.025Z,26.95
2022-12-04T20:16:02.614Z,26.95
2022-12-04T20:18:30.366Z,29.88
2022-12-04T20:20:59.881Z,27.95
2022-12-04T20:23:28.022Z,25.38
2022-12-04T20:25:57.037Z,23.08
2022-12-04T20:28:24.769Z,26.35
2022-12-04T20:30:52.586Z,25.23
2022-12-04T20:33:20.298Z,24.92
2022-12-04T20:35:48.215Z,32.05
2022-12-04T20:38:15.949Z,29.15
2022-12-04T20:40:43.671Z,26.15
2022-12-04T20:43:12.703Z,26.73
2022-12-04T20:45:40.450Z,29.13
2022-12-04T20:48:08.210Z,26.73
2022-12-04T20:50:35.965Z,28.48
2022-12-04T20:53:03.678Z,29.02
2022-12-04T20:55:31.395Z,32.22
2022-12-04T20:57:59.104Z,27.73
2022-12-04T21:00:28.593Z,26.60
2022-12-04T21:02:56.369Z,27.20
2022-12-04T21:05:24.269Z,25.98
2022-12-04T21:07:51.981Z,26.33
2022-12-04T21:10:19.713Z,25.85
2022-12-04T21:13:05.149Z,24.85
2022-12-04T21:15:51.824Z,28.83
2022-12-04T21:18:19.522Z,25.13
2022-12-04T21:20:47.202Z,26.00
2022-12-04T21:23:14.924Z,28.88
2022-12-04T21:25:42.646Z,26.23
2022-12-04T21:28:10.386Z,27.38
2022-12-04T21:30:39.397Z,25.02
2022-12-04T21:33:07.020Z,28.92
2022-12-04T21:35:34.744Z,26.20
2022-12-04T21:38:02.422Z,24.92
2022-12-04T21:40:30.119Z,28.42
2022-12-04T21:42:57.806Z,23.65
2022-12-04T21:45:25.489Z,26.35
2022-12-04T21:47:54.498Z,32.22
2022-12-04T21:50:22.228Z,26.30
2022-12-04T21:52:49.895Z,29.13
2022-12-04T21:55:17.806Z,26.45
2022-12-04T21:57:45.473Z,25.42
2022-12-04T22:00:14.681Z,24.63
2022-12-04T22:02:42.428Z,25.90
2022-12-04T22:05:11.598Z,27.42
2022-12-04T22:07:39.379Z,25.15
2022-12-04T22:10:10.847Z,26.75
2022-12-04T22:12:49.580Z,27.33
2022-12-04T22:15:18.379Z,26.27
2022-12-04T22:17:46.047Z,29.80
2022-12-04T22:20:16.471Z,27.02
2022-12-04T22:22:44.105Z,27.02
2022-12-04T22:25:11.744Z,29.30
2022-12-04T22:27:39.432Z,26.20
2022-12-04T22:30:08.585Z,32.92
2022-12-04T22:32:36.300Z,28.13
2022-12-04T22:35:04.029Z,32.92
2022-12-04T22:37:33.103Z,29.92
2022-12-04T22:40:00.814Z,29.70
2022-12-04T22:42:28.736Z,31.75
2022-12-04T22:44:56.458Z,31.85
2022-12-04T22:47:24.141Z,29.42
2022-12-04T22:49:51.930Z,29.40
2022-12-04T22:52:19.976Z,30.20
2022-12-04T22:54:51.117Z,31.00
2022-12-04T22:57:18.961Z,30.75
2022-12-04T22:59:46.814Z,29.35
2022-12-04T23:02:14.593Z,32.47
2022-12-04T23:04:43.585Z,32.10
2022-12-04T23:07:11.312Z,30.30
2022-12-04T23:09:39.379Z,29.55
2022-12-04T23:12:08.649Z,33.13
2022-12-04T23:14:36.920Z,29.35
2022-12-04T23:17:04.985Z,29.50
2022-12-04T23:19:32.700Z,29.40
2022-12-04T23:22:00.588Z,30.13
2022-12-04T23:24:28.333Z,31.55
2022-12-04T23:26:55.976Z,31.90
2022-12-04T23:32:12.674Z,32.78
2022-12-04T23:34:40.444Z,28.92
2022-12-04T23:37:08.155Z,32.60
2022-12-04T23:39:35.892Z,29.48
2022-12-04T23:42:03.579Z,33.20
2022-12-04T23:44:32.839Z,31.77
2022-12-04T23:47:00.610Z,29.20
2022-12-04T23:49:29.215Z,32.28
2022-12-04T23:51:56.871Z,36.60
2022-12-04T23:54:24.522Z,32.83
2022-12-04T23:56:52.201Z,30.67
2022-12-04T23:59:21.933Z,35.17
